sensor_id;sensor_type;location;lat;lon;timestamp;P1;durP1;ratioP1;P2;durP2;ratioP2
30303;SDS011;17112;48.636;10.152;2023-02-28T00:00:12;5.43;;;3.00;;
30303;SDS011;17112;48.636;10.152;2023-02-28T00:02:42;4.80;;;3.15;;
30303;SDS011;17112;48.636;10.152;2023-02-28T00:05:09;5.13;;;3.30;;
30303;SDS011;17112;48.636;10.152;2023-02-28T00:07:36;4.80;;;2.67;;
30303;SDS011;17112;48.636;10.152;2023-02-28T00:10:02;4.75;;;2.95;;
30303;SDS011;17112;48.636;10.152;2023-02-28T00:12:31;7.43;;;3.33;;
30303;SDS011;17112;48.636;10.152;2023-02-28T00:14:57;5.03;;;3.28;;
30303;SDS011;17112;48.636;10.152;2023-02-28T00:17:22;5.15;;;2.80;;
30303;SDS011;17112;48.636;10.152;2023-02-28T00:19:48;4.35;;;2.83;;
30303;SDS011;17112;48.636;10.152;2023-02-28T00:22:18;3.03;;;2.42;;
30303;SDS011;17112;48.636;10.152;2023-02-28T00:24:45;4.90;;;2.92;;
30303;SDS011;17112;48.636;10.152;2023-02-28T00:27:11;6.53;;;2.92;;
30303;SDS011;17112;48.636;10.152;2023-02-28T00:29:37;4.45;;;2.88;;
30303;SDS011;17112;48.636;10.152;2023-02-28T00:32:03;4.07;;;3.10;;
30303;SDS011;17112;48.636;10.152;2023-02-28T00:34:29;8.63;;;3.17;;
30303;SDS011;17112;48.636;10.152;2023-02-28T00:36:55;5.00;;;3.03;;
30303;SDS011;17112;48.636;10.152;2023-02-28T00:39:20;5.20;;;3.17;;
30303;SDS011;17112;48.636;10.152;2023-02-28T00:41:47;6.70;;;3.22;;
30303;SDS011;17112;48.636;10.152;2023-02-28T00:44:12;4.38;;;2.90;;
30303;SDS011;17112;48.636;10.152;2023-02-28T00:46:38;4.60;;;3.10;;
30303;SDS011;17112;48.636;10.152;2023-02-28T00:49:04;4.20;;;2.90;;
30303;SDS011;17112;48.636;10.152;2023-02-28T00:51:29;5.03;;;2.88;;
30303;SDS011;17112;48.636;10.152;2023-02-28T00:53:55;6.55;;;3.15;;
30303;SDS011;17112;48.636;10.152;2023-02-28T00:56:20;3.13;;;2.53;;
30303;SDS011;17112;48.636;10.152;2023-02-28T00:58:46;7.35;;;3.25;;
30303;SDS011;17112;48.636;10.152;2023-02-28T01:01:12;6.82;;;2.92;;
30303;SDS011;17112;48.636;10.152;2023-02-28T01:03:37;6.45;;;3.20;;
30303;SDS011;17112;48.636;10.152;2023-02-28T01:06:03;6.47;;;3.30;;
30303;SDS011;17112;48.636;10.152;2023-02-28T01:08:29;4.63;;;2.85;;
30303;SDS011;17112;48.636;10.152;2023-02-28T01:10:55;6.18;;;3.15;;
30303;SDS011;17112;48.636;10.152;2023-02-28T01:13:21;4.30;;;3.03;;
30303;SDS011;17112;48.636;10.152;2023-02-28T01:15:52;5.30;;;2.85;;
30303;SDS011;17112;48.636;10.152;2023-02-28T01:18:21;4.38;;;2.88;;
30303;SDS011;17112;48.636;10.152;2023-02-28T01:20:47;4.25;;;2.70;;
30303;SDS011;17112;48.636;10.152;2023-02-28T01:23:13;11.27;;;3.42;;
30303;SDS011;17112;48.636;10.152;2023-02-28T01:25:39;5.00;;;2.80;;
30303;SDS011;17112;48.636;10.152;2023-02-28T01:28:05;8.20;;;3.45;;
30303;SDS011;17112;48.636;10.152;2023-02-28T01:30:31;5.80;;;3.10;;
30303;SDS011;17112;48.636;10.152;2023-02-28T01:32:57;5.20;;;3.28;;
30303;SDS011;17112;48.636;10.152;2023-02-28T01:35:23;6.13;;;3.30;;
30303;SDS011;17112;48.636;10.152;2023-02-28T01:37:48;10.00;;;3.40;;
30303;SDS011;17112;48.636;10.152;2023-02-28T01:40:14;5.35;;;3.17;;
30303;SDS011;17112;48.636;10.152;2023-02-28T01:42:40;6.95;;;3.40;;
30303;SDS011;17112;48.636;10.152;2023-02-28T01:45:20;7.32;;;3.47;;
30303;SDS011;17112;48.636;10.152;2023-02-28T01:47:51;5.72;;;3.45;;
30303;SDS011;17112;48.636;10.152;2023-02-28T01:50:23;4.13;;;3.08;;
30303;SDS011;17112;48.636;10.152;2023-02-28T01:52:51;5.57;;;2.97;;
30303;SDS011;17112;48.636;10.152;2023-02-28T01:55:22;6.88;;;3.40;;
30303;SDS011;17112;48.636;10.152;2023-02-28T01:57:54;4.97;;;3.30;;
30303;SDS011;17112;48.636;10.152;2023-02-28T02:00:22;5.55;;;3.90;;
30303;SDS011;17112;48.636;10.152;2023-02-28T02:02:53;4.57;;;3.13;;
30303;SDS011;17112;48.636;10.152;2023-02-28T02:05:23;4.60;;;3.15;;
30303;SDS011;17112;48.636;10.152;2023-02-28T02:08:12;6.32;;;3.28;;
30303;SDS011;17112;48.636;10.152;2023-02-28T02:10:41;6.30;;;3.17;;
30303;SDS011;17112;48.636;10.152;2023-02-28T02:16:10;4.72;;;3.05;;
30303;SDS011;17112;48.636;10.152;2023-02-28T02:46:33;5.72;;;3.67;;
30303;SDS011;17112;48.636;10.152;2023-02-28T02:49:09;4.60;;;3.22;;
30303;SDS011;17112;48.636;10.152;2023-02-28T02:51:42;3.70;;;2.95;;
30303;SDS011;17112;48.636;10.152;2023-02-28T02:54:17;5.82;;;3.38;;
30303;SDS011;17112;48.636;10.152;2023-02-28T02:56:46;5.78;;;3.55;;
30303;SDS011;17112;48.636;10.152;2023-02-28T02:59:21;7.30;;;4.20;;
30303;SDS011;17112;48.636;10.152;2023-02-28T03:01:50;5.32;;;3.33;;
30303;SDS011;17112;48.636;10.152;2023-02-28T03:04:24;5.93;;;3.75;;
30303;SDS011;17112;48.636;10.152;2023-02-28T03:06:56;7.07;;;4.18;;
30303;SDS011;17112;48.636;10.152;2023-02-28T03:09:22;9.52;;;3.78;;
30303;SDS011;17112;48.636;10.152;2023-02-28T03:11:50;8.80;;;4.13;;
30303;SDS011;17112;48.636;10.152;2023-02-28T03:19:55;7.10;;;3.47;;
30303;SDS011;17112;48.636;10.152;2023-02-28T03:33:17;6.07;;;3.30;;
30303;SDS011;17112;48.636;10.152;2023-02-28T03:35:57;5.88;;;3.50;;
30303;SDS011;17112;48.636;10.152;2023-02-28T03:38:36;5.85;;;3.33;;
30303;SDS011;17112;48.636;10.152;2023-02-28T03:41:06;5.35;;;3.67;;
30303;SDS011;17112;48.636;10.152;2023-02-28T03:43:36;7.22;;;4.18;;
30303;SDS011;17112;48.636;10.152;2023-02-28T03:46:08;6.68;;;4.32;;
30303;SDS011;17112;48.636;10.152;2023-02-28T03:48:49;11.10;;;4.45;;
30303;SDS011;17112;48.636;10.152;2023-02-28T03:53:49;7.35;;;3.60;;
30303;SDS011;17112;48.636;10.152;2023-02-28T03:56:29;5.22;;;3.97;;
30303;SDS011;17112;48.636;10.152;2023-02-28T04:01:30;6.63;;;4.80;;
30303;SDS011;17112;48.636;10.152;2023-02-28T04:03:57;6.90;;;3.90;;
30303;SDS011;17112;48.636;10.152;2023-02-28T04:06:23;7.28;;;4.35;;
30303;SDS011;17112;48.636;10.152;2023-02-28T04:08:49;7.82;;;4.80;;
30303;SDS011;17112;48.636;10.152;2023-02-28T04:11:30;6.43;;;3.95;;
30303;SDS011;17112;48.636;10.152;2023-02-28T04:14:00;12.45;;;4.32;;
30303;SDS011;17112;48.636;10.152;2023-02-28T04:16:27;6.95;;;4.10;;
30303;SDS011;17112;48.636;10.152;2023-02-28T04:18:53;8.82;;;4.97;;
30303;SDS011;17112;48.636;10.152;2023-02-28T04:21:18;5.47;;;4.07;;
30303;SDS011;17112;48.636;10.152;2023-02-28T04:23:47;7.03;;;4.68;;
30303;SDS011;17112;48.636;10.152;2023-02-28T04:26:12;9.63;;;4.80;;
30303;SDS011;17112;48.636;10.152;2023-02-28T04:28:38;12.02;;;4.70;;
30303;SDS011;17112;48.636;10.152;2023-02-28T04:31:04;11.27;;;4.95;;
30303;SDS011;17112;48.636;10.152;2023-02-28T04:33:31;6.68;;;4.40;;
30303;SDS011;17112;48.636;10.152;2023-02-28T04:35:58;6.75;;;4.35;;
30303;SDS011;17112;48.636;10.152;2023-02-28T04:38:29;8.32;;;5.30;;
30303;SDS011;17112;48.636;10.152;2023-02-28T04:40:59;6.40;;;4.18;;
30303;SDS011;17112;48.636;10.152;2023-02-28T04:43:28;7.43;;;4.35;;
30303;SDS011;17112;48.636;10.152;2023-02-28T04:45:55;7.63;;;4.22;;
30303;SDS011;17112;48.636;10.152;2023-02-28T04:48:24;8.27;;;4.35;;
30303;SDS011;17112;48.636;10.152;2023-02-28T04:50:52;7.45;;;4.38;;
30303;SDS011;17112;48.636;10.152;2023-02-28T04:53:18;6.43;;;4.47;;
30303;SDS011;17112;48.636;10.152;2023-02-28T04:55:44;7.13;;;5.03;;
30303;SDS011;17112;48.636;10.152;2023-02-28T04:58:10;5.85;;;4.28;;
30303;SDS011;17112;48.636;10.152;2023-02-28T05:00:37;7.20;;;4.72;;
30303;SDS011;17112;48.636;10.152;2023-02-28T05:03:02;8.18;;;4.28;;
30303;SDS011;17112;48.636;10.152;2023-02-28T05:05:28;8.45;;;4.35;;
30303;SDS011;17112;48.636;10.152;2023-02-28T05:07:54;8.40;;;4.85;;
30303;SDS011;17112;48.636;10.152;2023-02-28T05:10:21;8.25;;;4.97;;
30303;SDS011;17112;48.636;10.152;2023-02-28T05:12:47;9.05;;;4.55;;
30303;SDS011;17112;48.636;10.152;2023-02-28T05:15:13;6.93;;;4.60;;
30303;SDS011;17112;48.636;10.152;2023-02-28T05:17:40;7.47;;;5.15;;
30303;SDS011;17112;48.636;10.152;2023-02-28T05:20:06;14.65;;;4.80;;
30303;SDS011;17112;48.636;10.152;2023-02-28T05:22:35;9.80;;;4.70;;
30303;SDS011;17112;48.636;10.152;2023-02-28T05:25:02;11.10;;;5.78;;
30303;SDS011;17112;48.636;10.152;2023-02-28T05:27:30;8.55;;;4.95;;
30303;SDS011;17112;48.636;10.152;2023-02-28T05:29:56;7.50;;;4.80;;
30303;SDS011;17112;48.636;10.152;2023-02-28T05:32:22;7.05;;;5.05;;
30303;SDS011;17112;48.636;10.152;2023-02-28T05:34:47;24.75;;;10.10;;
30303;SDS011;17112;48.636;10.152;2023-02-28T05:37:14;21.77;;;9.20;;
30303;SDS011;17112;48.636;10.152;2023-02-28T05:39:40;52.40;;;17.65;;
30303;SDS011;17112;48.636;10.152;2023-02-28T05:42:06;20.85;;;10.40;;
30303;SDS011;17112;48.636;10.152;2023-02-28T05:44:32;37.67;;;15.35;;
30303;SDS011;17112;48.636;10.152;2023-02-28T05:46:59;19.92;;;10.82;;
30303;SDS011;17112;48.636;10.152;2023-02-28T05:49:25;13.70;;;7.03;;
30303;SDS011;17112;48.636;10.152;2023-02-28T05:51:51;17.17;;;10.45;;
30303;SDS011;17112;48.636;10.152;2023-02-28T05:54:16;9.35;;;6.38;;
30303;SDS011;17112;48.636;10.152;2023-02-28T05:56:42;9.00;;;5.82;;
30303;SDS011;17112;48.636;10.152;2023-02-28T05:59:10;10.68;;;6.28;;
30303;SDS011;17112;48.636;10.152;2023-02-28T06:01:40;9.45;;;5.88;;
30303;SDS011;17112;48.636;10.152;2023-02-28T06:04:13;11.55;;;5.82;;
30303;SDS011;17112;48.636;10.152;2023-02-28T06:06:43;9.50;;;5.82;;
30303;SDS011;17112;48.636;10.152;2023-02-28T06:09:09;9.52;;;5.35;;
30303;SDS011;17112;48.636;10.152;2023-02-28T06:11:36;10.55;;;7.13;;
30303;SDS011;17112;48.636;10.152;2023-02-28T06:14:02;8.07;;;5.93;;
30303;SDS011;17112;48.636;10.152;2023-02-28T06:16:28;9.65;;;6.05;;
30303;SDS011;17112;48.636;10.152;2023-02-28T06:18:56;7.95;;;5.07;;
30303;SDS011;17112;48.636;10.152;2023-02-28T06:21:23;8.50;;;5.25;;
30303;SDS011;17112;48.636;10.152;2023-02-28T06:23:49;11.90;;;6.53;;
30303;SDS011;17112;48.636;10.152;2023-02-28T06:26:15;10.88;;;5.53;;
30303;SDS011;17112;48.636;10.152;2023-02-28T06:28:41;10.45;;;5.80;;
30303;SDS011;17112;48.636;10.152;2023-02-28T06:31:07;9.40;;;5.10;;
30303;SDS011;17112;48.636;10.152;2023-02-28T06:33:34;9.63;;;6.35;;
30303;SDS011;17112;48.636;10.152;2023-02-28T06:35:59;8.77;;;5.95;;
30303;SDS011;17112;48.636;10.152;2023-02-28T06:38:26;9.35;;;6.05;;
30303;SDS011;17112;48.636;10.152;2023-02-28T06:40:55;11.15;;;5.25;;
30303;SDS011;17112;48.636;10.152;2023-02-28T06:43:22;9.25;;;5.63;;
30303;SDS011;17112;48.636;10.152;2023-02-28T06:45:49;8.82;;;5.15;;
30303;SDS011;17112;48.636;10.152;2023-02-28T06:48:15;9.57;;;5.28;;
30303;SDS011;17112;48.636;10.152;2023-02-28T06:50:41;8.15;;;5.45;;
30303;SDS011;17112;48.636;10.152;2023-02-28T06:53:07;11.30;;;6.05;;
30303;SDS011;17112;48.636;10.152;2023-02-28T06:55:33;10.90;;;5.75;;
30303;SDS011;17112;48.636;10.152;2023-02-28T06:57:58;13.55;;;6.85;;
30303;SDS011;17112;48.636;10.152;2023-02-28T07:00:24;11.05;;;5.47;;
30303;SDS011;17112;48.636;10.152;2023-02-28T07:02:50;10.07;;;5.30;;
30303;SDS011;17112;48.636;10.152;2023-02-28T07:05:15;7.93;;;5.47;;
30303;SDS011;17112;48.636;10.152;2023-02-28T07:07:41;9.57;;;6.05;;
30303;SDS011;17112;48.636;10.152;2023-02-28T07:10:12;8.85;;;6.03;;
30303;SDS011;17112;48.636;10.152;2023-02-28T07:12:39;9.93;;;5.85;;
30303;SDS011;17112;48.636;10.152;2023-02-28T07:15:05;11.95;;;6.40;;
30303;SDS011;17112;48.636;10.152;2023-02-28T07:17:31;8.60;;;5.65;;
30303;SDS011;17112;48.636;10.152;2023-02-28T07:19:57;9.32;;;5.53;;
30303;SDS011;17112;48.636;10.152;2023-02-28T07:22:23;11.18;;;5.95;;
30303;SDS011;17112;48.636;10.152;2023-02-28T07:24:49;9.68;;;5.65;;
30303;SDS011;17112;48.636;10.152;2023-02-28T07:27:15;9.32;;;5.20;;
30303;SDS011;17112;48.636;10.152;2023-02-28T07:29:48;9.55;;;5.85;;
30303;SDS011;17112;48.636;10.152;2023-02-28T07:32:14;13.77;;;5.70;;
30303;SDS011;17112;48.636;10.152;2023-02-28T07:34:40;9.73;;;5.45;;
30303;SDS011;17112;48.636;10.152;2023-02-28T07:37:06;12.63;;;6.72;;
30303;SDS011;17112;48.636;10.152;2023-02-28T07:39:32;11.90;;;6.28;;
30303;SDS011;17112;48.636;10.152;2023-02-28T07:41:57;10.52;;;6.30;;
30303;SDS011;17112;48.636;10.152;2023-02-28T07:44:24;13.43;;;6.18;;
30303;SDS011;17112;48.636;10.152;2023-02-28T07:46:51;10.35;;;5.75;;
30303;SDS011;17112;48.636;10.152;2023-02-28T07:49:17;10.07;;;6.38;;
30303;SDS011;17112;48.636;10.152;2023-02-28T07:51:43;7.55;;;5.05;;
30303;SDS011;17112;48.636;10.152;2023-02-28T07:54:09;10.75;;;5.55;;
30303;SDS011;17112;48.636;10.152;2023-02-28T07:56:35;10.88;;;5.57;;
30303;SDS011;17112;48.636;10.152;2023-02-28T07:59:00;10.55;;;6.10;;
30303;SDS011;17112;48.636;10.152;2023-02-28T08:01:26;13.57;;;6.30;;
30303;SDS011;17112;48.636;10.152;2023-02-28T08:03:52;8.52;;;5.45;;
30303;SDS011;17112;48.636;10.152;2023-02-28T08:06:20;8.38;;;5.82;;
30303;SDS011;17112;48.636;10.152;2023-02-28T08:08:47;11.90;;;6.90;;
30303;SDS011;17112;48.636;10.152;2023-02-28T08:11:13;13.98;;;5.85;;
30303;SDS011;17112;48.636;10.152;2023-02-28T08:13:39;10.02;;;5.85;;
30303;SDS011;17112;48.636;10.152;2023-02-28T08:16:07;8.57;;;5.80;;
30303;SDS011;17112;48.636;10.152;2023-02-28T08:18:33;10.00;;;6.18;;
30303;SDS011;17112;48.636;10.152;2023-02-28T08:20:58;7.97;;;6.15;;
30303;SDS011;17112;48.636;10.152;2023-02-28T08:23:24;11.38;;;6.57;;
30303;SDS011;17112;48.636;10.152;2023-02-28T08:25:54;9.73;;;5.93;;
30303;SDS011;17112;48.636;10.152;2023-02-28T08:28:23;10.18;;;6.38;;
30303;SDS011;17112;48.636;10.152;2023-02-28T08:30:49;12.65;;;6.68;;
30303;SDS011;17112;48.636;10.152;2023-02-28T08:33:14;10.30;;;6.30;;
30303;SDS011;17112;48.636;10.152;2023-02-28T08:35:40;13.55;;;7.40;;
30303;SDS011;17112;48.636;10.152;2023-02-28T08:38:06;9.85;;;6.63;;
30303;SDS011;17112;48.636;10.152;2023-02-28T08:40:31;13.13;;;7.68;;
30303;SDS011;17112;48.636;10.152;2023-02-28T08:42:57;19.48;;;11.23;;
30303;SDS011;17112;48.636;10.152;2023-02-28T08:45:23;13.02;;;7.50;;
30303;SDS011;17112;48.636;10.152;2023-02-28T08:47:49;12.27;;;6.97;;
30303;SDS011;17112;48.636;10.152;2023-02-28T08:50:17;13.10;;;7.07;;
30303;SDS011;17112;48.636;10.152;2023-02-28T08:52:43;12.13;;;7.55;;
30303;SDS011;17112;48.636;10.152;2023-02-28T08:55:09;12.02;;;7.65;;
30303;SDS011;17112;48.636;10.152;2023-02-28T08:57:35;11.32;;;6.97;;
30303;SDS011;17112;48.636;10.152;2023-02-28T09:00:00;9.43;;;6.93;;
30303;SDS011;17112;48.636;10.152;2023-02-28T09:02:29;11.48;;;7.00;;
30303;SDS011;17112;48.636;10.152;2023-02-28T09:04:56;11.68;;;6.45;;
30303;SDS011;17112;48.636;10.152;2023-02-28T09:07:23;12.88;;;7.65;;
30303;SDS011;17112;48.636;10.152;2023-02-28T09:09:49;10.90;;;6.43;;
30303;SDS011;17112;48.636;10.152;2023-02-28T09:12:22;11.80;;;6.82;;
30303;SDS011;17112;48.636;10.152;2023-02-28T09:14:50;9.20;;;6.82;;
30303;SDS011;17112;48.636;10.152;2023-02-28T09:17:17;11.38;;;6.85;;
30303;SDS011;17112;48.636;10.152;2023-02-28T09:19:43;12.00;;;6.75;;
30303;SDS011;17112;48.636;10.152;2023-02-28T09:22:09;11.68;;;7.00;;
30303;SDS011;17112;48.636;10.152;2023-02-28T09:24:36;11.73;;;6.88;;
30303;SDS011;17112;48.636;10.152;2023-02-28T09:27:02;10.68;;;6.63;;
30303;SDS011;17112;48.636;10.152;2023-02-28T09:29:28;11.48;;;6.90;;
30303;SDS011;17112;48.636;10.152;2023-02-28T09:31:54;14.57;;;8.15;;
30303;SDS011;17112;48.636;10.152;2023-02-28T09:34:22;14.60;;;7.53;;
30303;SDS011;17112;48.636;10.152;2023-02-28T09:36:48;12.18;;;8.30;;
30303;SDS011;17112;48.636;10.152;2023-02-28T09:39:13;10.90;;;7.30;;
30303;SDS011;17112;48.636;10.152;2023-02-28T09:41:43;12.68;;;7.47;;
30303;SDS011;17112;48.636;10.152;2023-02-28T09:44:20;11.88;;;7.18;;
30303;SDS011;17112;48.636;10.152;2023-02-28T09:47:01;10.40;;;6.57;;
30303;SDS011;17112;48.636;10.152;2023-02-28T09:49:38;11.60;;;6.90;;
30303;SDS011;17112;48.636;10.152;2023-02-28T09:52:12;10.60;;;6.88;;
30303;SDS011;17112;48.636;10.152;2023-02-28T09:54:41;11.15;;;7.30;;
30303;SDS011;17112;48.636;10.152;2023-02-28T09:59:59;12.18;;;7.00;;
30303;SDS011;17112;48.636;10.152;2023-02-28T10:05:17;11.65;;;7.47;;
30303;SDS011;17112;48.636;10.152;2023-02-28T10:16:05;14.82;;;9.30;;
30303;SDS011;17112;48.636;10.152;2023-02-28T10:21:19;9.65;;;6.95;;
30303;SDS011;17112;48.636;10.152;2023-02-28T10:23:48;13.23;;;8.38;;
30303;SDS011;17112;48.636;10.152;2023-02-28T10:26:17;14.70;;;9.13;;
30303;SDS011;17112;48.636;10.152;2023-02-28T10:28:43;16.90;;;9.32;;
30303;SDS011;17112;48.636;10.152;2023-02-28T10:31:11;15.07;;;9.27;;
30303;SDS011;17112;48.636;10.152;2023-02-28T10:33:42;14.85;;;8.05;;
30303;SDS011;17112;48.636;10.152;2023-02-28T10:36:10;11.98;;;7.72;;
30303;SDS011;17112;48.636;10.152;2023-02-28T10:38:42;13.98;;;7.80;;
30303;SDS011;17112;48.636;10.152;2023-02-28T10:43:53;15.27;;;7.78;;
30303;SDS011;17112;48.636;10.152;2023-02-28T10:46:44;14.43;;;7.13;;
30303;SDS011;17112;48.636;10.152;2023-02-28T10:49:20;11.60;;;7.70;;
30303;SDS011;17112;48.636;10.152;2023-02-28T10:51:49;12.45;;;7.55;;
30303;SDS011;17112;48.636;10.152;2023-02-28T10:59:52;11.93;;;7.43;;
30303;SDS011;17112;48.636;10.152;2023-02-28T11:02:34;20.83;;;8.98;;
30303;SDS011;17112;48.636;10.152;2023-02-28T11:05:02;14.68;;;8.43;;
30303;SDS011;17112;48.636;10.152;2023-02-28T11:07:51;13.32;;;7.32;;
30303;SDS011;17112;48.636;10.152;2023-02-28T11:10:19;11.48;;;6.97;;
30303;SDS011;17112;48.636;10.152;2023-02-28T11:12:47;12.30;;;7.20;;
30303;SDS011;17112;48.636;10.152;2023-02-28T11:18:17;11.10;;;6.95;;
30303;SDS011;17112;48.636;10.152;2023-02-28T11:21:04;11.40;;;7.03;;
30303;SDS011;17112;48.636;10.152;2023-02-28T11:23:30;18.65;;;8.23;;
30303;SDS011;17112;48.636;10.152;2023-02-28T11:26:01;12.63;;;7.68;;
30303;SDS011;17112;48.636;10.152;2023-02-28T11:28:36;9.68;;;6.90;;
30303;SDS011;17112;48.636;10.152;2023-02-28T11:33:52;12.57;;;7.45;;
30303;SDS011;17112;48.636;10.152;2023-02-28T11:36:21;11.75;;;7.22;;
30303;SDS011;17112;48.636;10.152;2023-02-28T11:38:52;11.95;;;7.40;;
30303;SDS011;17112;48.636;10.152;2023-02-28T11:46:54;12.35;;;6.95;;
30303;SDS011;17112;48.636;10.152;2023-02-28T11:49:45;13.60;;;7.35;;
30303;SDS011;17112;48.636;10.152;2023-02-28T11:52:30;20.60;;;7.40;;
30303;SDS011;17112;48.636;10.152;2023-02-28T11:57:56;11.40;;;7.25;;
30303;SDS011;17112;48.636;10.152;2023-02-28T12:03:38;11.07;;;7.72;;
30303;SDS011;17112;48.636;10.152;2023-02-28T12:06:21;18.42;;;8.52;;
30303;SDS011;17112;48.636;10.152;2023-02-28T12:19:58;13.50;;;8.32;;
30303;SDS011;17112;48.636;10.152;2023-02-28T12:23:04;9.97;;;6.97;;
30303;SDS011;17112;48.636;10.152;2023-02-28T12:25:33;10.57;;;6.93;;
30303;SDS011;17112;48.636;10.152;2023-02-28T12:28:03;11.82;;;7.07;;
30303;SDS011;17112;48.636;10.152;2023-02-28T12:30:31;13.38;;;7.13;;
30303;SDS011;17112;48.636;10.152;2023-02-28T12:33:09;12.02;;;6.60;;
30303;SDS011;17112;48.636;10.152;2023-02-28T12:35:45;11.23;;;6.32;;
30303;SDS011;17112;48.636;10.152;2023-02-28T12:38:24;13.85;;;7.75;;
30303;SDS011;17112;48.636;10.152;2023-02-28T12:41:15;10.63;;;6.47;;
30303;SDS011;17112;48.636;10.152;2023-02-28T12:43:46;13.82;;;8.70;;
30303;SDS011;17112;48.636;10.152;2023-02-28T12:46:36;12.43;;;6.60;;
30303;SDS011;17112;48.636;10.152;2023-02-28T12:49:11;11.43;;;7.22;;
30303;SDS011;17112;48.636;10.152;2023-02-28T12:51:44;11.98;;;8.43;;
30303;SDS011;17112;48.636;10.152;2023-02-28T12:56:54;9.88;;;7.68;;
30303;SDS011;17112;48.636;10.152;2023-02-28T12:59:36;10.88;;;7.22;;
30303;SDS011;17112;48.636;10.152;2023-02-28T13:07:46;32.15;;;16.95;;
30303;SDS011;17112;48.636;10.152;2023-02-28T13:10:17;24.58;;;13.93;;
30303;SDS011;17112;48.636;10.152;2023-02-28T13:12:47;14.20;;;8.95;;
30303;SDS011;17112;48.636;10.152;2023-02-28T13:15:22;14.68;;;10.18;;
30303;SDS011;17112;48.636;10.152;2023-02-28T13:17:53;12.25;;;7.60;;
30303;SDS011;17112;48.636;10.152;2023-02-28T13:20:27;14.43;;;9.00;;
30303;SDS011;17112;48.636;10.152;2023-02-28T13:23:00;11.88;;;7.28;;
30303;SDS011;17112;48.636;10.152;2023-02-28T13:27:59;11.95;;;6.70;;
30303;SDS011;17112;48.636;10.152;2023-02-28T13:35:45;11.88;;;7.32;;
30303;SDS011;17112;48.636;10.152;2023-02-28T13:38:13;11.48;;;6.97;;
30303;SDS011;17112;48.636;10.152;2023-02-28T13:40:46;15.40;;;8.45;;
30303;SDS011;17112;48.636;10.152;2023-02-28T13:43:12;18.42;;;9.60;;
30303;SDS011;17112;48.636;10.152;2023-02-28T13:45:54;13.05;;;8.15;;
30303;SDS011;17112;48.636;10.152;2023-02-28T13:48:33;13.10;;;7.85;;
30303;SDS011;17112;48.636;10.152;2023-02-28T13:50:58;11.40;;;6.75;;
30303;SDS011;17112;48.636;10.152;2023-02-28T13:53:37;17.42;;;7.07;;
30303;SDS011;17112;48.636;10.152;2023-02-28T13:56:40;11.05;;;6.45;;
30303;SDS011;17112;48.636;10.152;2023-02-28T13:59:28;8.07;;;5.13;;
30303;SDS011;17112;48.636;10.152;2023-02-28T14:05:15;9.95;;;6.70;;
30303;SDS011;17112;48.636;10.152;2023-02-28T14:07:44;18.10;;;9.63;;
30303;SDS011;17112;48.636;10.152;2023-02-28T14:10:23;13.63;;;7.97;;
30303;SDS011;17112;48.636;10.152;2023-02-28T14:12:56;11.85;;;7.50;;
30303;SDS011;17112;48.636;10.152;2023-02-28T14:18:24;12.15;;;7.20;;
30303;SDS011;17112;48.636;10.152;2023-02-28T14:21:14;9.43;;;5.95;;
30303;SDS011;17112;48.636;10.152;2023-02-28T14:37:19;11.73;;;6.55;;
30303;SDS011;17112;48.636;10.152;2023-02-28T14:39:54;17.40;;;8.23;;
30303;SDS011;17112;48.636;10.152;2023-02-28T14:42:34;15.45;;;8.00;;
30303;SDS011;17112;48.636;10.152;2023-02-28T14:45:03;8.43;;;5.70;;
30303;SDS011;17112;48.636;10.152;2023-02-28T14:47:32;10.77;;;6.22;;
30303;SDS011;17112;48.636;10.152;2023-02-28T14:50:00;11.32;;;6.45;;
30303;SDS011;17112;48.636;10.152;2023-02-28T14:52:27;10.35;;;6.10;;
30303;SDS011;17112;48.636;10.152;2023-02-28T14:54:56;10.27;;;6.30;;
30303;SDS011;17112;48.636;10.152;2023-02-28T14:57:29;8.43;;;6.30;;
30303;SDS011;17112;48.636;10.152;2023-02-28T14:59:57;8.88;;;5.90;;
30303;SDS011;17112;48.636;10.152;2023-02-28T15:02:24;12.48;;;6.35;;
30303;SDS011;17112;48.636;10.152;2023-02-28T15:04:57;8.70;;;6.18;;
30303;SDS011;17112;48.636;10.152;2023-02-28T15:07:24;7.70;;;5.97;;
30303;SDS011;17112;48.636;10.152;2023-02-28T15:10:06;9.90;;;6.57;;
30303;SDS011;17112;48.636;10.152;2023-02-28T15:12:37;7.20;;;5.72;;
30303;SDS011;17112;48.636;10.152;2023-02-28T15:15:05;9.90;;;6.50;;
30303;SDS011;17112;48.636;10.152;2023-02-28T15:17:32;11.30;;;6.60;;
30303;SDS011;17112;48.636;10.152;2023-02-28T15:20:00;9.80;;;6.00;;
30303;SDS011;17112;48.636;10.152;2023-02-28T15:22:31;8.60;;;6.32;;
30303;SDS011;17112;48.636;10.152;2023-02-28T15:25:02;9.85;;;6.65;;
30303;SDS011;17112;48.636;10.152;2023-02-28T15:27:31;10.23;;;6.07;;
30303;SDS011;17112;48.636;10.152;2023-02-28T15:30:05;9.05;;;6.32;;
30303;SDS011;17112;48.636;10.152;2023-02-28T15:32:39;12.85;;;7.50;;
30303;SDS011;17112;48.636;10.152;2023-02-28T15:37:54;8.95;;;6.50;;
30303;SDS011;17112;48.636;10.152;2023-02-28T15:40:25;18.73;;;11.70;;
30303;SDS011;17112;48.636;10.152;2023-02-28T15:43:06;13.65;;;8.25;;
30303;SDS011;17112;48.636;10.152;2023-02-28T15:45:49;11.18;;;7.55;;
30303;SDS011;17112;48.636;10.152;2023-02-28T15:48:29;13.30;;;7.22;;
30303;SDS011;17112;48.636;10.152;2023-02-28T15:51:17;15.40;;;8.00;;
30303;SDS011;17112;48.636;10.152;2023-02-28T15:53:47;13.00;;;8.35;;
30303;SDS011;17112;48.636;10.152;2023-02-28T15:56:26;18.23;;;8.70;;
30303;SDS011;17112;48.636;10.152;2023-02-28T15:58:55;16.83;;;9.90;;
30303;SDS011;17112;48.636;10.152;2023-02-28T16:01:32;20.40;;;11.85;;
30303;SDS011;17112;48.636;10.152;2023-02-28T16:04:03;15.25;;;9.85;;
30303;SDS011;17112;48.636;10.152;2023-02-28T16:06:40;12.95;;;8.20;;
30303;SDS011;17112;48.636;10.152;2023-02-28T16:09:13;11.95;;;7.35;;
30303;SDS011;17112;48.636;10.152;2023-02-28T16:14:20;32.33;;;18.90;;
30303;SDS011;17112;48.636;10.152;2023-02-28T16:16:49;59.97;;;27.70;;
30303;SDS011;17112;48.636;10.152;2023-02-28T16:19:17;60.13;;;27.75;;
30303;SDS011;17112;48.636;10.152;2023-02-28T16:21:43;76.93;;;32.17;;
30303;SDS011;17112;48.636;10.152;2023-02-28T16:24:10;196.88;;;78.95;;
30303;SDS011;17112;48.636;10.152;2023-02-28T16:26:35;186.63;;;76.63;;
30303;SDS011;17112;48.636;10.152;2023-02-28T16:29:04;209.70;;;87.25;;
30303;SDS011;17112;48.636;10.152;2023-02-28T16:31:31;108.20;;;49.47;;
30303;SDS011;17112;48.636;10.152;2023-02-28T16:34:01;354.65;;;138.32;;
30303;SDS011;17112;48.636;10.152;2023-02-28T16:36:28;181.60;;;79.10;;
30303;SDS011;17112;48.636;10.152;2023-02-28T16:38:54;197.65;;;89.10;;
30303;SDS011;17112;48.636;10.152;2023-02-28T16:41:22;56.47;;;30.50;;
30303;SDS011;17112;48.636;10.152;2023-02-28T16:43:53;43.33;;;23.65;;
30303;SDS011;17112;48.636;10.152;2023-02-28T16:46:24;26.52;;;15.70;;
30303;SDS011;17112;48.636;10.152;2023-02-28T16:48:56;37.85;;;19.02;;
30303;SDS011;17112;48.636;10.152;2023-02-28T16:51:22;56.47;;;33.90;;
30303;SDS011;17112;48.636;10.152;2023-02-28T16:53:48;42.65;;;26.67;;
30303;SDS011;17112;48.636;10.152;2023-02-28T16:56:17;32.72;;;23.20;;
30303;SDS011;17112;48.636;10.152;2023-02-28T16:58:45;23.15;;;13.38;;
30303;SDS011;17112;48.636;10.152;2023-02-28T17:01:12;25.95;;;12.70;;
30303;SDS011;17112;48.636;10.152;2023-02-28T17:03:38;22.48;;;13.13;;
30303;SDS011;17112;48.636;10.152;2023-02-28T17:06:05;15.48;;;8.73;;